sensor_id;sensor_type;location;lat;lon;timestamp;P1;durP1;ratioP1;P2;durP2;ratioP2
14611;SDS011;7392;52.078;11.650;2023-04-15T00:01:28;2.60;;;2.40;;
14611;SDS011;7392;52.078;11.650;2023-04-15T00:04:00;2.50;;;2.30;;
14611;SDS011;7392;52.078;11.650;2023-04-15T00:06:28;2.83;;;2.47;;
14611;SDS011;7392;52.078;11.650;2023-04-15T00:08:56;2.50;;;2.30;;
14611;SDS011;7392;52.078;11.650;2023-04-15T00:11:24;2.83;;;2.63;;
14611;SDS011;7392;52.078;11.650;2023-04-15T00:13:52;2.80;;;2.60;;
14611;SDS011;7392;52.078;11.650;2023-04-15T00:16:19;2.13;;;1.93;;
14611;SDS011;7392;52.078;11.650;2023-04-15T00:18:47;2.40;;;2.20;;
14611;SDS011;7392;52.078;11.650;2023-04-15T00:21:16;2.40;;;2.20;;
14611;SDS011;7392;52.078;11.650;2023-04-15T00:23:44;2.53;;;2.33;;
14611;SDS011;7392;52.078;11.650;2023-04-15T00:26:15;2.83;;;2.47;;
14611;SDS011;7392;52.078;11.650;2023-04-15T00:28:43;2.80;;;2.60;;
14611;SDS011;7392;52.078;11.650;2023-04-15T00:31:10;2.43;;;2.23;;
14611;SDS011;7392;52.078;11.650;2023-04-15T00:33:38;2.03;;;1.93;;
14611;SDS011;7392;52.078;11.650;2023-04-15T00:36:06;1.97;;;1.87;;
14611;SDS011;7392;52.078;11.650;2023-04-15T00:38:37;1.97;;;1.87;;
14611;SDS011;7392;52.078;11.650;2023-04-15T00:41:05;2.10;;;1.90;;
14611;SDS011;7392;52.078;11.650;2023-04-15T00:43:33;1.73;;;1.63;;
14611;SDS011;7392;52.078;11.650;2023-04-15T00:46:00;2.00;;;1.70;;
14611;SDS011;7392;52.078;11.650;2023-04-15T00:48:30;1.90;;;1.80;;
14611;SDS011;7392;52.078;11.650;2023-04-15T00:50:58;1.93;;;1.83;;
14611;SDS011;7392;52.078;11.650;2023-04-15T00:53:26;2.40;;;2.20;;
14611;SDS011;7392;52.078;11.650;2023-04-15T00:55:55;2.23;;;2.03;;
14611;SDS011;7392;52.078;11.650;2023-04-15T00:58:23;2.20;;;2.00;;
14611;SDS011;7392;52.078;11.650;2023-04-15T01:00:51;2.57;;;2.37;;
14611;SDS011;7392;52.078;11.650;2023-04-15T01:03:19;2.50;;;2.30;;
14611;SDS011;7392;52.078;11.650;2023-04-15T01:05:48;2.63;;;2.43;;
14611;SDS011;7392;52.078;11.650;2023-04-15T01:08:16;2.60;;;2.40;;
14611;SDS011;7392;52.078;11.650;2023-04-15T01:10:43;2.97;;;2.77;;
14611;SDS011;7392;52.078;11.650;2023-04-15T01:13:13;3.57;;;3.27;;
14611;SDS011;7392;52.078;11.650;2023-04-15T01:15:40;3.93;;;3.63;;
14611;SDS011;7392;52.078;11.650;2023-04-15T01:18:08;4.30;;;3.90;;
14611;SDS011;7392;52.078;11.650;2023-04-15T01:20:36;4.70;;;4.40;;
14611;SDS011;7392;52.078;11.650;2023-04-15T01:23:04;4.03;;;3.73;;
14611;SDS011;7392;52.078;11.650;2023-04-15T01:25:34;3.90;;;3.60;;
14611;SDS011;7392;52.078;11.650;2023-04-15T01:28:02;4.17;;;3.73;;
14611;SDS011;7392;52.078;11.650;2023-04-15T01:30:32;4.40;;;4.00;;
14611;SDS011;7392;52.078;11.650;2023-04-15T01:33:00;4.20;;;3.80;;
14611;SDS011;7392;52.078;11.650;2023-04-15T01:35:28;4.37;;;3.97;;
14611;SDS011;7392;52.078;11.650;2023-04-15T01:37:58;4.83;;;4.43;;
14611;SDS011;7392;52.078;11.650;2023-04-15T01:40:31;3.60;;;3.30;;
14611;SDS011;7392;52.078;11.650;2023-04-15T01:43:00;3.93;;;3.63;;
14611;SDS011;7392;52.078;11.650;2023-04-15T01:45:29;4.17;;;3.83;;
14611;SDS011;7392;52.078;11.650;2023-04-15T01:47:56;3.93;;;3.63;;
14611;SDS011;7392;52.078;11.650;2023-04-15T01:50:24;3.67;;;3.37;;
14611;SDS011;7392;52.078;11.650;2023-04-15T01:52:53;3.70;;;3.40;;
14611;SDS011;7392;52.078;11.650;2023-04-15T01:55:22;3.83;;;3.53;;
14611;SDS011;7392;52.078;11.650;2023-04-15T01:57:50;3.80;;;3.50;;
14611;SDS011;7392;52.078;11.650;2023-04-15T02:00:20;3.47;;;3.17;;
14611;SDS011;7392;52.078;11.650;2023-04-15T02:02:50;3.77;;;3.47;;
14611;SDS011;7392;52.078;11.650;2023-04-15T02:05:18;3.63;;;3.33;;
14611;SDS011;7392;52.078;11.650;2023-04-15T02:07:46;3.50;;;3.20;;
14611;SDS011;7392;52.078;11.650;2023-04-15T02:10:14;3.27;;;3.07;;
14611;SDS011;7392;52.078;11.650;2023-04-15T02:12:42;3.13;;;2.93;;
14611;SDS011;7392;52.078;11.650;2023-04-15T02:15:10;3.47;;;3.17;;
14611;SDS011;7392;52.078;11.650;2023-04-15T02:17:39;3.40;;;3.10;;
14611;SDS011;7392;52.078;11.650;2023-04-15T02:20:13;3.17;;;2.93;;
14611;SDS011;7392;52.078;11.650;2023-04-15T02:22:41;3.57;;;3.27;;
14611;SDS011;7392;52.078;11.650;2023-04-15T02:25:08;3.57;;;3.27;;
14611;SDS011;7392;52.078;11.650;2023-04-15T02:27:36;4.00;;;3.70;;
14611;SDS011;7392;52.078;11.650;2023-04-15T02:30:05;3.00;;;2.73;;
14611;SDS011;7392;52.078;11.650;2023-04-15T02:32:33;3.40;;;3.10;;
14611;SDS011;7392;52.078;11.650;2023-04-15T02:35:05;3.53;;;3.23;;
14611;SDS011;7392;52.078;11.650;2023-04-15T02:37:34;3.80;;;3.50;;
14611;SDS011;7392;52.078;11.650;2023-04-15T02:40:08;4.77;;;4.37;;
14611;SDS011;7392;52.078;11.650;2023-04-15T02:42:37;5.10;;;4.60;;
14611;SDS011;7392;52.078;11.650;2023-04-15T02:45:08;4.80;;;4.40;;
14611;SDS011;7392;52.078;11.650;2023-04-15T02:47:38;4.53;;;4.13;;
14611;SDS011;7392;52.078;11.650;2023-04-15T02:50:09;5.53;;;5.03;;
14611;SDS011;7392;52.078;11.650;2023-04-15T02:52:40;5.50;;;5.00;;
14611;SDS011;7392;52.078;11.650;2023-04-15T02:55:08;5.33;;;4.83;;
14611;SDS011;7392;52.078;11.650;2023-04-15T02:57:36;4.97;;;4.57;;
14611;SDS011;7392;52.078;11.650;2023-04-15T03:00:06;5.40;;;4.90;;
14611;SDS011;7392;52.078;11.650;2023-04-15T03:02:39;4.93;;;4.53;;
14611;SDS011;7392;52.078;11.650;2023-04-15T03:05:11;4.07;;;3.77;;
14611;SDS011;7392;52.078;11.650;2023-04-15T03:07:46;3.77;;;3.47;;
14611;SDS011;7392;52.078;11.650;2023-04-15T03:10:14;3.67;;;3.37;;
14611;SDS011;7392;52.078;11.650;2023-04-15T03:12:41;3.77;;;3.47;;
14611;SDS011;7392;52.078;11.650;2023-04-15T03:15:14;3.03;;;2.80;;
14611;SDS011;7392;52.078;11.650;2023-04-15T03:17:45;2.80;;;2.60;;
14611;SDS011;7392;52.078;11.650;2023-04-15T03:20:16;2.87;;;2.67;;
14611;SDS011;7392;52.078;11.650;2023-04-15T03:22:44;2.93;;;2.73;;
14611;SDS011;7392;52.078;11.650;2023-04-15T03:25:11;3.00;;;2.70;;
14611;SDS011;7392;52.078;11.650;2023-04-15T03:27:40;3.00;;;2.70;;
14611;SDS011;7392;52.078;11.650;2023-04-15T03:30:08;2.83;;;2.63;;
14611;SDS011;7392;52.078;11.650;2023-04-15T03:32:37;2.73;;;2.53;;
14611;SDS011;7392;52.078;11.650;2023-04-15T03:35:06;2.80;;;2.60;;
14611;SDS011;7392;52.078;11.650;2023-04-15T03:37:36;2.90;;;2.63;;
14611;SDS011;7392;52.078;11.650;2023-04-15T03:40:04;2.63;;;2.43;;
14611;SDS011;7392;52.078;11.650;2023-04-15T03:42:32;2.73;;;2.53;;
14611;SDS011;7392;52.078;11.650;2023-04-15T03:45:00;2.50;;;2.30;;
14611;SDS011;7392;52.078;11.650;2023-04-15T03:47:27;2.60;;;2.40;;
14611;SDS011;7392;52.078;11.650;2023-04-15T03:49:55;3.27;;;2.90;;
14611;SDS011;7392;52.078;11.650;2023-04-15T03:52:23;2.90;;;2.70;;
14611;SDS011;7392;52.078;11.650;2023-04-15T03:54:52;2.43;;;2.23;;
14611;SDS011;7392;52.078;11.650;2023-04-15T03:57:19;2.57;;;2.37;;
14611;SDS011;7392;52.078;11.650;2023-04-15T03:59:47;1.90;;;1.80;;
14611;SDS011;7392;52.078;11.650;2023-04-15T04:02:15;1.90;;;1.80;;
14611;SDS011;7392;52.078;11.650;2023-04-15T04:04:42;2.17;;;1.97;;
14611;SDS011;7392;52.078;11.650;2023-04-15T04:07:13;2.53;;;2.33;;
14611;SDS011;7392;52.078;11.650;2023-04-15T04:09:42;2.70;;;2.50;;
14611;SDS011;7392;52.078;11.650;2023-04-15T04:12:13;2.80;;;2.60;;
14611;SDS011;7392;52.078;11.650;2023-04-15T04:14:41;2.70;;;2.50;;
14611;SDS011;7392;52.078;11.650;2023-04-15T04:17:09;2.50;;;2.30;;
14611;SDS011;7392;52.078;11.650;2023-04-15T04:19:37;2.53;;;2.33;;
14611;SDS011;7392;52.078;11.650;2023-04-15T04:22:04;2.70;;;2.50;;
14611;SDS011;7392;52.078;11.650;2023-04-15T04:24:32;2.40;;;2.20;;
14611;SDS011;7392;52.078;11.650;2023-04-15T04:26:59;2.73;;;2.53;;
14611;SDS011;7392;52.078;11.650;2023-04-15T04:29:28;2.40;;;2.20;;
14611;SDS011;7392;52.078;11.650;2023-04-15T04:31:56;2.23;;;2.03;;
14611;SDS011;7392;52.078;11.650;2023-04-15T04:34:24;2.50;;;2.30;;
14611;SDS011;7392;52.078;11.650;2023-04-15T04:36:51;2.77;;;2.57;;
14611;SDS011;7392;52.078;11.650;2023-04-15T04:39:19;2.40;;;2.20;;
14611;SDS011;7392;52.078;11.650;2023-04-15T04:41:47;2.40;;;2.20;;
14611;SDS011;7392;52.078;11.650;2023-04-15T04:44:14;2.50;;;2.30;;
14611;SDS011;7392;52.078;11.650;2023-04-15T04:46:43;2.67;;;2.47;;
14611;SDS011;7392;52.078;11.650;2023-04-15T04:49:11;2.60;;;2.40;;
14611;SDS011;7392;52.078;11.650;2023-04-15T04:51:38;2.13;;;2.00;;
14611;SDS011;7392;52.078;11.650;2023-04-15T04:54:06;2.13;;;1.93;;
14611;SDS011;7392;52.078;11.650;2023-04-15T04:56:34;2.40;;;2.20;;
14611;SDS011;7392;52.078;11.650;2023-04-15T04:59:04;2.10;;;2.00;;
14611;SDS011;7392;52.078;11.650;2023-04-15T05:01:32;1.93;;;1.83;;
14611;SDS011;7392;52.078;11.650;2023-04-15T05:04:01;1.87;;;1.77;;
14611;SDS011;7392;52.078;11.650;2023-04-15T05:06:30;2.33;;;2.13;;
14611;SDS011;7392;52.078;11.650;2023-04-15T05:08:58;2.33;;;2.13;;
14611;SDS011;7392;52.078;11.650;2023-04-15T05:11:26;1.80;;;1.70;;
14611;SDS011;7392;52.078;11.650;2023-04-15T05:13:54;2.40;;;2.20;;
14611;SDS011;7392;52.078;11.650;2023-04-15T05:16:23;2.40;;;2.20;;
14611;SDS011;7392;52.078;11.650;2023-04-15T05:18:51;2.20;;;2.00;;
14611;SDS011;7392;52.078;11.650;2023-04-15T05:21:20;2.20;;;2.00;;
14611;SDS011;7392;52.078;11.650;2023-04-15T05:23:48;1.90;;;1.80;;
14611;SDS011;7392;52.078;11.650;2023-04-15T05:26:16;1.90;;;1.80;;
14611;SDS011;7392;52.078;11.650;2023-04-15T05:28:43;1.87;;;1.77;;
14611;SDS011;7392;52.078;11.650;2023-04-15T05:31:11;2.00;;;1.80;;
14611;SDS011;7392;52.078;11.650;2023-04-15T05:33:39;2.13;;;2.00;;
14611;SDS011;7392;52.078;11.650;2023-04-15T05:36:07;1.73;;;1.63;;
14611;SDS011;7392;52.078;11.650;2023-04-15T05:38:36;1.80;;;1.70;;
14611;SDS011;7392;52.078;11.650;2023-04-15T05:41:04;1.70;;;1.60;;
14611;SDS011;7392;52.078;11.650;2023-04-15T05:43:32;1.87;;;1.77;;
14611;SDS011;7392;52.078;11.650;2023-04-15T05:45:59;1.60;;;1.50;;
14611;SDS011;7392;52.078;11.650;2023-04-15T05:48:27;1.97;;;1.83;;
14611;SDS011;7392;52.078;11.650;2023-04-15T05:50:55;1.77;;;1.67;;
14611;SDS011;7392;52.078;11.650;2023-04-15T05:53:22;1.70;;;1.60;;
14611;SDS011;7392;52.078;11.650;2023-04-15T05:55:52;2.30;;;2.10;;
14611;SDS011;7392;52.078;11.650;2023-04-15T05:58:19;1.90;;;1.80;;
14611;SDS011;7392;52.078;11.650;2023-04-15T06:00:47;2.03;;;1.93;;
14611;SDS011;7392;52.078;11.650;2023-04-15T06:03:15;2.30;;;2.10;;
14611;SDS011;7392;52.078;11.650;2023-04-15T06:05:43;1.80;;;1.70;;
14611;SDS011;7392;52.078;11.650;2023-04-15T06:08:10;1.90;;;1.70;;
14611;SDS011;7392;52.078;11.650;2023-04-15T06:10:38;1.93;;;1.83;;
14611;SDS011;7392;52.078;11.650;2023-04-15T06:13:08;2.10;;;1.90;;
14611;SDS011;7392;52.078;11.650;2023-04-15T06:15:35;2.30;;;2.10;;
14611;SDS011;7392;52.078;11.650;2023-04-15T06:18:03;2.00;;;1.90;;
14611;SDS011;7392;52.078;11.650;2023-04-15T06:20:31;1.93;;;1.83;;
14611;SDS011;7392;52.078;11.650;2023-04-15T06:22:59;2.20;;;2.00;;
14611;SDS011;7392;52.078;11.650;2023-04-15T06:25:26;1.90;;;1.80;;
14611;SDS011;7392;52.078;11.650;2023-04-15T06:27:54;2.27;;;2.10;;
14611;SDS011;7392;52.078;11.650;2023-04-15T06:30:23;2.03;;;1.90;;
14611;SDS011;7392;52.078;11.650;2023-04-15T06:32:51;2.27;;;2.07;;
14611;SDS011;7392;52.078;11.650;2023-04-15T06:36:51;2.20;;;2.00;;
14611;SDS011;7392;52.078;11.650;2023-04-15T06:39:23;2.67;;;2.47;;
14611;SDS011;7392;52.078;11.650;2023-04-15T06:41:57;2.63;;;2.43;;
14611;SDS011;7392;52.078;11.650;2023-04-15T06:44:30;2.67;;;2.47;;
14611;SDS011;7392;52.078;11.650;2023-04-15T06:46:59;2.73;;;2.50;;
14611;SDS011;7392;52.078;11.650;2023-04-15T06:49:27;2.70;;;2.50;;
14611;SDS011;7392;52.078;11.650;2023-04-15T06:51:56;3.10;;;2.80;;
14611;SDS011;7392;52.078;11.650;2023-04-15T06:54:25;3.17;;;2.60;;
14611;SDS011;7392;52.078;11.650;2023-04-15T06:56:53;4.50;;;3.63;;
14611;SDS011;7392;52.078;11.650;2023-04-15T06:59:21;4.53;;;3.87;;
14611;SDS011;7392;52.078;11.650;2023-04-15T07:01:49;5.30;;;3.93;;
14611;SDS011;7392;52.078;11.650;2023-04-15T07:04:17;5.27;;;4.27;;
14611;SDS011;7392;52.078;11.650;2023-04-15T07:06:45;6.17;;;4.20;;
14611;SDS011;7392;52.078;11.650;2023-04-15T07:09:14;6.83;;;4.03;;
14611;SDS011;7392;52.078;11.650;2023-04-15T07:11:42;5.27;;;4.00;;
14611;SDS011;7392;52.078;11.650;2023-04-15T07:14:10;4.40;;;3.37;;
14611;SDS011;7392;52.078;11.650;2023-04-15T07:16:38;4.13;;;3.20;;
14611;SDS011;7392;52.078;11.650;2023-04-15T07:19:05;5.43;;;3.53;;
14611;SDS011;7392;52.078;11.650;2023-04-15T07:21:33;4.20;;;3.27;;
14611;SDS011;7392;52.078;11.650;2023-04-15T07:24:07;4.63;;;3.40;;
14611;SDS011;7392;52.078;11.650;2023-04-15T07:26:37;4.70;;;3.30;;
14611;SDS011;7392;52.078;11.650;2023-04-15T07:29:06;5.07;;;4.40;;
14611;SDS011;7392;52.078;11.650;2023-04-15T07:31:41;5.63;;;4.20;;
14611;SDS011;7392;52.078;11.650;2023-04-15T07:34:09;5.47;;;4.20;;
14611;SDS011;7392;52.078;11.650;2023-04-15T07:36:37;4.93;;;3.80;;
14611;SDS011;7392;52.078;11.650;2023-04-15T07:39:05;4.93;;;3.70;;
14611;SDS011;7392;52.078;11.650;2023-04-15T07:41:33;5.67;;;4.43;;
14611;SDS011;7392;52.078;11.650;2023-04-15T07:44:02;5.20;;;4.27;;
14611;SDS011;7392;52.078;11.650;2023-04-15T07:46:30;8.27;;;5.10;;
14611;SDS011;7392;52.078;11.650;2023-04-15T07:48:59;6.73;;;4.73;;
14611;SDS011;7392;52.078;11.650;2023-04-15T07:51:27;7.33;;;5.73;;
14611;SDS011;7392;52.078;11.650;2023-04-15T07:53:55;6.63;;;5.43;;
14611;SDS011;7392;52.078;11.650;2023-04-15T07:56:24;7.93;;;5.40;;
14611;SDS011;7392;52.078;11.650;2023-04-15T07:58:52;7.63;;;6.27;;
14611;SDS011;7392;52.078;11.650;2023-04-15T08:01:21;7.47;;;6.60;;
14611;SDS011;7392;52.078;11.650;2023-04-15T08:03:49;8.47;;;6.03;;
14611;SDS011;7392;52.078;11.650;2023-04-15T08:06:18;9.30;;;6.90;;
14611;SDS011;7392;52.078;11.650;2023-04-15T08:08:45;10.93;;;8.20;;
14611;SDS011;7392;52.078;11.650;2023-04-15T08:11:13;10.53;;;7.90;;
14611;SDS011;7392;52.078;11.650;2023-04-15T08:13:41;10.20;;;7.70;;
14611;SDS011;7392;52.078;11.650;2023-04-15T08:16:14;9.87;;;8.20;;
14611;SDS011;7392;52.078;11.650;2023-04-15T08:18:46;11.17;;;8.40;;
14611;SDS011;7392;52.078;11.650;2023-04-15T08:21:15;10.90;;;8.37;;
14611;SDS011;7392;52.078;11.650;2023-04-15T08:23:44;10.00;;;8.70;;
14611;SDS011;7392;52.078;11.650;2023-04-15T08:26:13;11.10;;;9.00;;
14611;SDS011;7392;52.078;11.650;2023-04-15T08:28:41;13.10;;;9.50;;
14611;SDS011;7392;52.078;11.650;2023-04-15T08:31:10;13.73;;;9.50;;
14611;SDS011;7392;52.078;11.650;2023-04-15T08:33:39;14.17;;;10.30;;
14611;SDS011;7392;52.078;11.650;2023-04-15T08:36:09;12.70;;;10.67;;
14611;SDS011;7392;52.078;11.650;2023-04-15T08:38:43;14.90;;;11.83;;
14611;SDS011;7392;52.078;11.650;2023-04-15T08:41:14;15.70;;;11.43;;
14611;SDS011;7392;52.078;11.650;2023-04-15T08:43:49;15.20;;;11.83;;
14611;SDS011;7392;52.078;11.650;2023-04-15T08:46:20;13.17;;;10.47;;
14611;SDS011;7392;52.078;11.650;2023-04-15T08:48:49;12.97;;;11.10;;
14611;SDS011;7392;52.078;11.650;2023-04-15T08:51:20;13.73;;;11.03;;
14611;SDS011;7392;52.078;11.650;2023-04-15T08:53:50;14.07;;;11.00;;
14611;SDS011;7392;52.078;11.650;2023-04-15T08:56:19;13.07;;;10.97;;
14611;SDS011;7392;52.078;11.650;2023-04-15T08:58:53;12.23;;;10.93;;
14611;SDS011;7392;52.078;11.650;2023-04-15T09:01:21;21.87;;;16.63;;
14611;SDS011;7392;52.078;11.650;2023-04-15T09:03:49;15.37;;;12.83;;
14611;SDS011;7392;52.078;11.650;2023-04-15T09:06:22;17.67;;;13.40;;
14611;SDS011;7392;52.078;11.650;2023-04-15T09:08:50;16.83;;;13.80;;
14611;SDS011;7392;52.078;11.650;2023-04-15T09:11:19;15.03;;;13.17;;
14611;SDS011;7392;52.078;11.650;2023-04-15T09:13:48;15.07;;;13.47;;
14611;SDS011;7392;52.078;11.650;2023-04-15T09:16:17;15.03;;;12.97;;
14611;SDS011;7392;52.078;11.650;2023-04-15T09:18:45;13.77;;;12.37;;
14611;SDS011;7392;52.078;11.650;2023-04-15T09:21:13;14.10;;;12.60;;
14611;SDS011;7392;52.078;11.650;2023-04-15T09:23:54;14.80;;;13.20;;
14611;SDS011;7392;52.078;11.650;2023-04-15T09:26:32;14.37;;;12.87;;
14611;SDS011;7392;52.078;11.650;2023-04-15T09:29:04;14.30;;;12.37;;
14611;SDS011;7392;52.078;11.650;2023-04-15T09:31:33;13.77;;;12.37;;
14611;SDS011;7392;52.078;11.650;2023-04-15T09:34:02;15.33;;;13.07;;
14611;SDS011;7392;52.078;11.650;2023-04-15T09:36:34;14.53;;;12.87;;
14611;SDS011;7392;52.078;11.650;2023-04-15T09:39:07;17.50;;;13.63;;
14611;SDS011;7392;52.078;11.650;2023-04-15T09:41:35;16.77;;;13.30;;
14611;SDS011;7392;52.078;11.650;2023-04-15T09:44:03;15.43;;;13.00;;
14611;SDS011;7392;52.078;11.650;2023-04-15T09:46:40;14.37;;;12.63;;
14611;SDS011;7392;52.078;11.650;2023-04-15T09:49:09;13.27;;;11.77;;
14611;SDS011;7392;52.078;11.650;2023-04-15T09:51:38;14.37;;;12.63;;
14611;SDS011;7392;52.078;11.650;2023-04-15T09:54:07;12.93;;;11.20;;
14611;SDS011;7392;52.078;11.650;2023-04-15T09:56:36;15.03;;;12.20;;
14611;SDS011;7392;52.078;11.650;2023-04-15T09:59:07;13.13;;;11.57;;
14611;SDS011;7392;52.078;11.650;2023-04-15T10:01:35;14.10;;;12.00;;
14611;SDS011;7392;52.078;11.650;2023-04-15T10:04:06;12.57;;;11.03;;
14611;SDS011;7392;52.078;11.650;2023-04-15T10:06:36;12.10;;;10.70;;
14611;SDS011;7392;52.078;11.650;2023-04-15T10:09:07;11.87;;;10.67;;
14611;SDS011;7392;52.078;11.650;2023-04-15T10:11:36;12.37;;;10.97;;
14611;SDS011;7392;52.078;11.650;2023-04-15T10:14:03;13.63;;;11.57;;
14611;SDS011;7392;52.078;11.650;2023-04-15T10:16:34;12.97;;;11.67;;
14611;SDS011;7392;52.078;11.650;2023-04-15T10:19:08;12.83;;;11.00;;
14611;SDS011;7392;52.078;11.650;2023-04-15T10:21:37;12.20;;;10.63;;
14611;SDS011;7392;52.078;11.650;2023-04-15T10:24:05;14.97;;;11.10;;
14611;SDS011;7392;52.078;11.650;2023-04-15T10:26:35;12.27;;;10.97;;
14611;SDS011;7392;52.078;11.650;2023-04-15T10:29:03;11.67;;;10.27;;
14611;SDS011;7392;52.078;11.650;2023-04-15T10:31:32;12.77;;;11.20;;
14611;SDS011;7392;52.078;11.650;2023-04-15T10:34:01;12.43;;;11.13;;
14611;SDS011;7392;52.078;11.650;2023-04-15T10:36:32;12.53;;;11.20;;
14611;SDS011;7392;52.078;11.650;2023-04-15T10:39:00;11.77;;;10.43;;
14611;SDS011;7392;52.078;11.650;2023-04-15T10:41:29;12.37;;;11.00;;
14611;SDS011;7392;52.078;11.650;2023-04-15T10:44:00;11.97;;;10.80;;
14611;SDS011;7392;52.078;11.650;2023-04-15T10:46:36;11.97;;;10.67;;
14611;SDS011;7392;52.078;11.650;2023-04-15T10:49:06;11.17;;;10.07;;
14611;SDS011;7392;52.078;11.650;2023-04-15T10:51:36;11.83;;;10.63;;
14611;SDS011;7392;52.078;11.650;2023-04-15T10:54:08;12.80;;;11.43;;
14611;SDS011;7392;52.078;11.650;2023-04-15T10:56:41;13.17;;;11.73;;
14611;SDS011;7392;52.078;11.650;2023-04-15T10:59:10;11.93;;;10.73;;
14611;SDS011;7392;52.078;11.650;2023-04-15T11:01:51;11.53;;;10.33;;
14611;SDS011;7392;52.078;11.650;2023-04-15T11:07:32;10.47;;;9.43;;
14611;SDS011;7392;52.078;11.650;2023-04-15T11:10:01;10.17;;;9.13;;
14611;SDS011;7392;52.078;11.650;2023-04-15T11:12:36;10.97;;;9.60;;
14611;SDS011;7392;52.078;11.650;2023-04-15T11:17:53;10.70;;;9.60;;
14611;SDS011;7392;52.078;11.650;2023-04-15T11:20:22;10.57;;;9.47;;
14611;SDS011;7392;52.078;11.650;2023-04-15T11:22:51;9.67;;;8.67;;
14611;SDS011;7392;52.078;11.650;2023-04-15T11:25:40;10.90;;;9.80;;
14611;SDS011;7392;52.078;11.650;2023-04-15T11:28:10;11.30;;;9.57;;
14611;SDS011;7392;52.078;11.650;2023-04-15T11:30:39;10.63;;;9.57;;
14611;SDS011;7392;52.078;11.650;2023-04-15T11:33:09;10.23;;;9.17;;
14611;SDS011;7392;52.078;11.650;2023-04-15T11:35:39;12.00;;;10.10;;
14611;SDS011;7392;52.078;11.650;2023-04-15T11:38:08;11.97;;;9.93;;
14611;SDS011;7392;52.078;11.650;2023-04-15T11:40:37;11.20;;;10.10;;
14611;SDS011;7392;52.078;11.650;2023-04-15T11:43:09;12.20;;;10.13;;
14611;SDS011;7392;52.078;11.650;2023-04-15T11:45:46;12.27;;;10.67;;
14611;SDS011;7392;52.078;11.650;2023-04-15T11:48:17;13.63;;;11.10;;
14611;SDS011;7392;52.078;11.650;2023-04-15T11:50:45;14.37;;;11.70;;
14611;SDS011;7392;52.078;11.650;2023-04-15T11:53:13;12.37;;;10.70;;
14611;SDS011;7392;52.078;11.650;2023-04-15T11:55:41;13.40;;;10.93;;
14611;SDS011;7392;52.078;11.650;2023-04-15T11:58:12;14.73;;;10.83;;
14611;SDS011;7392;52.078;11.650;2023-04-15T12:00:45;14.80;;;11.23;;
14611;SDS011;7392;52.078;11.650;2023-04-15T12:03:18;14.07;;;12.07;;
14611;SDS011;7392;52.078;11.650;2023-04-15T12:06:02;12.17;;;10.63;;
14611;SDS011;7392;52.078;11.650;2023-04-15T12:08:46;12.10;;;10.17;;
14611;SDS011;7392;52.078;11.650;2023-04-15T12:11:32;19.67;;;14.20;;
14611;SDS011;7392;52.078;11.650;2023-04-15T12:14:15;17.10;;;11.83;;
14611;SDS011;7392;52.078;11.650;2023-04-15T12:16:46;15.20;;;11.77;;
14611;SDS011;7392;52.078;11.650;2023-04-15T12:19:20;14.37;;;12.07;;
14611;SDS011;7392;52.078;11.650;2023-04-15T12:21:51;14.97;;;11.83;;
14611;SDS011;7392;52.078;11.650;2023-04-15T12:24:25;14.43;;;12.23;;
14611;SDS011;7392;52.078;11.650;2023-04-15T12:26:54;13.23;;;11.83;;
14611;SDS011;7392;52.078;11.650;2023-04-15T12:29:26;12.57;;;11.27;;
14611;SDS011;7392;52.078;11.650;2023-04-15T12:32:02;11.90;;;10.67;;
14611;SDS011;7392;52.078;11.650;2023-04-15T12:34:33;11.60;;;10.50;;
14611;SDS011;7392;52.078;11.650;2023-04-15T12:37:02;12.33;;;11.13;;
14611;SDS011;7392;52.078;11.650;2023-04-15T12:39:34;12.30;;;11.00;;
14611;SDS011;7392;52.078;11.650;2023-04-15T12:42:02;10.40;;;9.40;;
14611;SDS011;7392;52.078;11.650;2023-04-15T12:44:32;11.00;;;10.00;;
14611;SDS011;7392;52.078;11.650;2023-04-15T12:47:01;10.37;;;9.47;;
14611;SDS011;7392;52.078;11.650;2023-04-15T12:49:29;9.33;;;8.43;;
14611;SDS011;7392;52.078;11.650;2023-04-15T12:51:58;9.57;;;8.77;;
14611;SDS011;7392;52.078;11.650;2023-04-15T12:54:27;9.27;;;8.47;;
14611;SDS011;7392;52.078;11.650;2023-04-15T12:56:56;9.23;;;8.43;;
14611;SDS011;7392;52.078;11.650;2023-04-15T12:59:24;8.97;;;8.17;;
14611;SDS011;7392;52.078;11.650;2023-04-15T13:01:54;9.27;;;8.47;;
14611;SDS011;7392;52.078;11.650;2023-04-15T13:04:26;8.93;;;8.13;;
14611;SDS011;7392;52.078;11.650;2023-04-15T13:06:56;8.20;;;7.50;;
14611;SDS011;7392;52.078;11.650;2023-04-15T13:09:24;8.83;;;7.93;;
14611;SDS011;7392;52.078;11.650;2023-04-15T13:11:52;8.23;;;7.53;;
14611;SDS011;7392;52.078;11.650;2023-04-15T13:14:20;8.43;;;7.63;;
14611;SDS011;7392;52.078;11.650;2023-04-15T13:16:49;9.27;;;8.37;;
14611;SDS011;7392;52.078;11.650;2023-04-15T13:19:18;8.27;;;7.47;;
14611;SDS011;7392;52.078;11.650;2023-04-15T13:21:46;8.77;;;7.97;;
14611;SDS011;7392;52.078;11.650;2023-04-15T13:24:15;9.93;;;9.03;;
14611;SDS011;7392;52.078;11.650;2023-04-15T13:26:43;9.63;;;8.73;;
14611;SDS011;7392;52.078;11.650;2023-04-15T13:29:10;9.63;;;8.73;;
14611;SDS011;7392;52.078;11.650;2023-04-15T13:31:39;9.07;;;8.27;;
14611;SDS011;7392;52.078;11.650;2023-04-15T13:34:07;9.60;;;8.70;;
14611;SDS011;7392;52.078;11.650;2023-04-15T13:36:36;7.93;;;7.13;;
14611;SDS011;7392;52.078;11.650;2023-04-15T13:39:04;9.23;;;8.33;;
14611;SDS011;7392;52.078;11.650;2023-04-15T13:41:32;9.43;;;8.53;;
14611;SDS011;7392;52.078;11.650;2023-04-15T13:44:00;8.83;;;8.03;;
14611;SDS011;7392;52.078;11.650;2023-04-15T13:46:28;8.60;;;7.77;;
14611;SDS011;7392;52.078;11.650;2023-04-15T13:48:56;9.33;;;8.47;;
14611;SDS011;7392;52.078;11.650;2023-04-15T13:51:24;10.23;;;8.97;;
14611;SDS011;7392;52.078;11.650;2023-04-15T13:53:53;9.80;;;8.90;;
14611;SDS011;7392;52.078;11.650;2023-04-15T13:56:22;9.40;;;8.50;;
14611;SDS011;7392;52.078;11.650;2023-04-15T13:58:50;10.07;;;9.07;;
14611;SDS011;7392;52.078;11.650;2023-04-15T14:01:20;11.07;;;9.80;;
14611;SDS011;7392;52.078;11.650;2023-04-15T14:03:48;12.20;;;10.53;;
14611;SDS011;7392;52.078;11.650;2023-04-15T14:06:16;10.70;;;9.43;;
14611;SDS011;7392;52.078;11.650;2023-04-15T14:08:44;12.63;;;9.70;;
14611;SDS011;7392;52.078;11.650;2023-04-15T14:11:13;11.07;;;9.10;;
14611;SDS011;7392;52.078;11.650;2023-04-15T14:13:41;9.97;;;8.97;;
14611;SDS011;7392;52.078;11.650;2023-04-15T14:16:09;11.57;;;9.07;;
14611;SDS011;7392;52.078;11.650;2023-04-15T14:18:37;9.97;;;8.47;;
14611;SDS011;7392;52.078;11.650;2023-04-15T14:21:05;8.90;;;7.93;;
14611;SDS011;7392;52.078;11.650;2023-04-15T14:23:33;8.23;;;7.43;;
14611;SDS011;7392;52.078;11.650;2023-04-15T14:26:01;9.67;;;7.80;;
14611;SDS011;7392;52.078;11.650;2023-04-15T14:28:30;8.37;;;7.57;;
14611;SDS011;7392;52.078;11.650;2023-04-15T14:30:58;8.43;;;7.47;;
14611;SDS011;7392;52.078;11.650;2023-04-15T14:33:26;8.87;;;7.97;;
14611;SDS011;7392;52.078;11.650;2023-04-15T14:35:54;8.53;;;7.70;;
14611;SDS011;7392;52.078;11.650;2023-04-15T14:38:22;7.13;;;6.47;;
14611;SDS011;7392;52.078;11.650;2023-04-15T14:40:50;7.03;;;6.40;;
14611;SDS011;7392;52.078;11.650;2023-04-15T14:43:17;6.97;;;6.27;;
14611;SDS011;7392;52.078;11.650;2023-04-15T14:45:46;7.77;;;7.07;;
14611;SDS011;7392;52.078;11.650;2023-04-15T14:48:14;7.73;;;6.93;;
14611;SDS011;7392;52.078;11.650;2023-04-15T14:50:42;7.83;;;6.80;;
14611;SDS011;7392;52.078;11.650;2023-04-15T14:53:10;8.30;;;7.50;;
14611;SDS011;7392;52.078;11.650;2023-04-15T14:55:39;7.77;;;6.97;;
14611;SDS011;7392;52.078;11.650;2023-04-15T14:58:07;8.77;;;7.90;;
14611;SDS011;7392;52.078;11.650;2023-04-15T15:00:35;10.07;;;8.70;;